Impacts TAF Board INFO
FOR SITUATIONAL AWARENESS. NOT TO BE USED FOR FLIGHT PLANNING PURPOSES.
IDs:

KDTW - Detroit Metro/Wayne, MI, US

Issued at 0523 UTC 20 Nov 2017
Updated at 0729 UTC 20 Nov 2017
Potential Impact None Slight Moderate High
Time<<20/20Z 20/21Z 20/22Z 20/23Z 21/00Z 21/01Z 21/02Z 21/03Z 21/04Z 21/05Z 21/06Z 21/07Z 21/08Z>>
Type PRVL PRVL PRVL PRVL PRVL PRVL PRVL PRVL PRVL PRVL PRVL PRVL PRVL
VIS >6 >6 >6 >6 >6 >6 >6 >6 >6 >6 >6 >6 >6
CIG -- -- -- -- -- -- 200 200 200 200 200 200 200
Cover SCT SCT SCT SCT SCT SCT BKN BKN BKN BKN BKN BKN BKN
FltCat VFR VFR VFR VFR VFR VFR VFR VFR VFR VFR VFR VFR VFR
WX -- -- -- -- -- -- -- -- -- -- -- -- --
WDir 220 220 220 220 220 220 210 210 210 210 210 210 210
WSpd 14 14 14 14 14 14 12 12 12 12 12 12 12
WGst 22 22 22 22 22 22 -- -- -- -- -- -- --

Raw TAF
KDTW 200523Z 2006/2112 24006KT P6SM BKN120
  FM201100 23010KT P6SM BKN200
  FM201700 22014G22KT P6SM SCT250
  FM210200 21012KT P6SM BKN200 WS012/24040KT


METAR Board
Radar Display
Forecast Discussion

FOR SITUATIONAL AWARENESS. NOT TO BE USED FOR FLIGHT PLANNING PURPOSES.